sensor_id;sensor_type;location;lat;lon;timestamp;P1;durP1;ratioP1;P2;durP2;ratioP2
27740;SDS011;15134;48.768;9.184;2023-09-19T00:00:19;1002.35;;;901.80;;
27740;SDS011;15134;48.768;9.184;2023-09-19T00:02:51;1008.42;;;907.63;;
27740;SDS011;15134;48.768;9.184;2023-09-19T00:05:21;1005.45;;;904.80;;
27740;SDS011;15134;48.768;9.184;2023-09-19T00:07:49;1011.38;;;910.28;;
27740;SDS011;15134;48.768;9.184;2023-09-19T00:10:21;1007.13;;;906.42;;
27740;SDS011;15134;48.768;9.184;2023-09-19T00:12:50;1011.45;;;910.47;;
27740;SDS011;15134;48.768;9.184;2023-09-19T00:15:26;1004.58;;;903.85;;
27740;SDS011;15134;48.768;9.184;2023-09-19T00:18:01;1010.20;;;909.07;;
27740;SDS011;15134;48.768;9.184;2023-09-19T00:20:27;1005.20;;;904.40;;
27740;SDS011;15134;48.768;9.184;2023-09-19T00:22:53;999.67;;;899.13;;
27740;SDS011;15134;48.768;9.184;2023-09-19T00:25:37;1001.28;;;900.78;;
27740;SDS011;15134;48.768;9.184;2023-09-19T00:28:06;996.08;;;895.65;;
27740;SDS011;15134;48.768;9.184;2023-09-19T00:30:33;992.07;;;891.80;;
27740;SDS011;15134;48.768;9.184;2023-09-19T00:32:59;998.28;;;897.70;;
27740;SDS011;15134;48.768;9.184;2023-09-19T00:35:26;1001.33;;;900.72;;
27740;SDS011;15134;48.768;9.184;2023-09-19T00:37:52;999.23;;;898.53;;
27740;SDS011;15134;48.768;9.184;2023-09-19T00:40:21;999.60;;;899.05;;
27740;SDS011;15134;48.768;9.184;2023-09-19T00:42:48;995.25;;;894.80;;
27740;SDS011;15134;48.768;9.184;2023-09-19T00:45:15;996.20;;;895.57;;
27740;SDS011;15134;48.768;9.184;2023-09-19T00:47:50;993.38;;;893.05;;
27740;SDS011;15134;48.768;9.184;2023-09-19T00:50:20;1001.85;;;901.00;;
27740;SDS011;15134;48.768;9.184;2023-09-19T00:52:48;998.78;;;898.00;;
27740;SDS011;15134;48.768;9.184;2023-09-19T00:55:18;996.58;;;895.97;;
27740;SDS011;15134;48.768;9.184;2023-09-19T00:57:45;991.20;;;890.88;;
27740;SDS011;15134;48.768;9.184;2023-09-19T01:00:12;993.85;;;893.47;;
27740;SDS011;15134;48.768;9.184;2023-09-19T01:02:46;996.13;;;895.60;;
27740;SDS011;15134;48.768;9.184;2023-09-19T01:05:12;996.00;;;895.70;;
27740;SDS011;15134;48.768;9.184;2023-09-19T01:07:39;1002.13;;;901.40;;
27740;SDS011;15134;48.768;9.184;2023-09-19T01:10:15;995.27;;;894.50;;
27740;SDS011;15134;48.768;9.184;2023-09-19T01:13:10;997.40;;;897.00;;
27740;SDS011;15134;48.768;9.184;2023-09-19T01:18:46;1002.08;;;901.42;;
27740;SDS011;15134;48.768;9.184;2023-09-19T01:21:44;1003.00;;;902.38;;
27740;SDS011;15134;48.768;9.184;2023-09-19T01:29:44;998.00;;;897.83;;
27740;SDS011;15134;48.768;9.184;2023-09-19T01:32:13;1000.33;;;899.85;;
27740;SDS011;15134;48.768;9.184;2023-09-19T01:34:45;1016.00;;;914.85;;
27740;SDS011;15134;48.768;9.184;2023-09-19T01:37:15;1011.45;;;910.63;;
27740;SDS011;15134;48.768;9.184;2023-09-19T01:39:59;1010.38;;;909.55;;
27740;SDS011;15134;48.768;9.184;2023-09-19T01:45:13;1017.57;;;916.27;;
27740;SDS011;15134;48.768;9.184;2023-09-19T01:50:59;1005.00;;;904.40;;
27740;SDS011;15134;48.768;9.184;2023-09-19T01:54:09;1008.33;;;907.58;;
27740;SDS011;15134;48.768;9.184;2023-09-19T01:56:51;1005.45;;;904.85;;
27740;SDS011;15134;48.768;9.184;2023-09-19T01:59:45;1009.95;;;909.08;;
27740;SDS011;15134;48.768;9.184;2023-09-19T02:02:21;1007.47;;;906.67;;
27740;SDS011;15134;48.768;9.184;2023-09-19T02:04:49;1005.45;;;904.72;;
27740;SDS011;15134;48.768;9.184;2023-09-19T02:07:16;994.85;;;894.65;;
27740;SDS011;15134;48.768;9.184;2023-09-19T02:09:42;1005.95;;;905.30;;
27740;SDS011;15134;48.768;9.184;2023-09-19T02:12:08;1003.58;;;902.95;;
27740;SDS011;15134;48.768;9.184;2023-09-19T02:14:35;1007.83;;;907.10;;
27740;SDS011;15134;48.768;9.184;2023-09-19T02:17:03;1004.63;;;904.13;;
27740;SDS011;15134;48.768;9.184;2023-09-19T02:19:37;1004.03;;;903.40;;
27740;SDS011;15134;48.768;9.184;2023-09-19T02:22:05;1004.95;;;904.20;;
27740;SDS011;15134;48.768;9.184;2023-09-19T02:24:33;1008.15;;;907.25;;
27740;SDS011;15134;48.768;9.184;2023-09-19T02:27:00;994.85;;;894.80;;
27740;SDS011;15134;48.768;9.184;2023-09-19T02:29:30;1004.38;;;903.67;;
27740;SDS011;15134;48.768;9.184;2023-09-19T02:31:57;1007.90;;;907.20;;
27740;SDS011;15134;48.768;9.184;2023-09-19T02:34:23;1002.67;;;902.23;;
27740;SDS011;15134;48.768;9.184;2023-09-19T02:36:50;1001.67;;;901.10;;
27740;SDS011;15134;48.768;9.184;2023-09-19T02:39:18;1004.63;;;904.03;;
27740;SDS011;15134;48.768;9.184;2023-09-19T02:41:44;1001.10;;;900.80;;
27740;SDS011;15134;48.768;9.184;2023-09-19T02:44:11;999.05;;;899.03;;
27740;SDS011;15134;48.768;9.184;2023-09-19T02:46:42;1001.20;;;900.75;;
27740;SDS011;15134;48.768;9.184;2023-09-19T02:49:07;1003.53;;;903.13;;
27740;SDS011;15134;48.768;9.184;2023-09-19T02:51:33;1002.43;;;901.80;;
27740;SDS011;15134;48.768;9.184;2023-09-19T02:53:59;1007.87;;;906.83;;
27740;SDS011;15134;48.768;9.184;2023-09-19T02:56:25;997.63;;;897.38;;
27740;SDS011;15134;48.768;9.184;2023-09-19T02:58:51;1002.78;;;902.30;;
27740;SDS011;15134;48.768;9.184;2023-09-19T03:01:18;1004.38;;;903.92;;
27740;SDS011;15134;48.768;9.184;2023-09-19T03:03:50;1010.70;;;909.80;;
27740;SDS011;15134;48.768;9.184;2023-09-19T03:06:16;998.13;;;897.92;;
27740;SDS011;15134;48.768;9.184;2023-09-19T03:08:47;1004.83;;;904.23;;
27740;SDS011;15134;48.768;9.184;2023-09-19T03:11:15;1004.17;;;903.72;;
27740;SDS011;15134;48.768;9.184;2023-09-19T03:13:46;1007.10;;;906.37;;
27740;SDS011;15134;48.768;9.184;2023-09-19T03:16:16;1006.67;;;905.90;;
27740;SDS011;15134;48.768;9.184;2023-09-19T03:18:42;1007.03;;;906.40;;
27740;SDS011;15134;48.768;9.184;2023-09-19T03:21:08;1010.35;;;909.75;;
27740;SDS011;15134;48.768;9.184;2023-09-19T03:23:34;1003.45;;;902.92;;
27740;SDS011;15134;48.768;9.184;2023-09-19T03:26:00;1009.72;;;908.85;;
27740;SDS011;15134;48.768;9.184;2023-09-19T03:28:33;1010.67;;;909.95;;
27740;SDS011;15134;48.768;9.184;2023-09-19T03:31:01;1014.70;;;913.83;;
27740;SDS011;15134;48.768;9.184;2023-09-19T03:33:30;1007.45;;;906.65;;
27740;SDS011;15134;48.768;9.184;2023-09-19T03:36:00;1003.65;;;903.22;;
27740;SDS011;15134;48.768;9.184;2023-09-19T03:38:39;1003.35;;;902.92;;
27740;SDS011;15134;48.768;9.184;2023-09-19T03:41:05;1009.00;;;908.30;;
27740;SDS011;15134;48.768;9.184;2023-09-19T03:43:34;1007.65;;;907.08;;
27740;SDS011;15134;48.768;9.184;2023-09-19T03:46:01;1010.38;;;909.58;;
27740;SDS011;15134;48.768;9.184;2023-09-19T03:48:31;1005.85;;;905.38;;
27740;SDS011;15134;48.768;9.184;2023-09-19T03:50:57;1015.22;;;914.15;;
27740;SDS011;15134;48.768;9.184;2023-09-19T03:53:24;1008.25;;;907.70;;
27740;SDS011;15134;48.768;9.184;2023-09-19T03:55:50;1007.95;;;907.47;;
27740;SDS011;15134;48.768;9.184;2023-09-19T03:58:17;1003.25;;;902.85;;
27740;SDS011;15134;48.768;9.184;2023-09-19T04:00:46;1006.28;;;905.92;;
27740;SDS011;15134;48.768;9.184;2023-09-19T04:03:12;1006.80;;;906.22;;
27740;SDS011;15134;48.768;9.184;2023-09-19T04:05:47;1011.95;;;911.20;;
27740;SDS011;15134;48.768;9.184;2023-09-19T04:08:13;1010.67;;;910.05;;
27740;SDS011;15134;48.768;9.184;2023-09-19T04:10:43;1013.05;;;912.22;;
27740;SDS011;15134;48.768;9.184;2023-09-19T04:13:09;1012.22;;;911.53;;
27740;SDS011;15134;48.768;9.184;2023-09-19T04:15:35;1009.33;;;908.58;;
27740;SDS011;15134;48.768;9.184;2023-09-19T04:18:03;1000.17;;;899.75;;
27740;SDS011;15134;48.768;9.184;2023-09-19T04:20:29;999.90;;;899.63;;
27740;SDS011;15134;48.768;9.184;2023-09-19T04:22:55;1007.47;;;906.55;;
27740;SDS011;15134;48.768;9.184;2023-09-19T04:25:21;1003.47;;;903.03;;
27740;SDS011;15134;48.768;9.184;2023-09-19T04:27:47;1011.88;;;911.17;;
27740;SDS011;15134;48.768;9.184;2023-09-19T04:30:13;1000.83;;;900.37;;
27740;SDS011;15134;48.768;9.184;2023-09-19T04:32:39;1005.40;;;904.90;;
27740;SDS011;15134;48.768;9.184;2023-09-19T04:35:07;1009.55;;;908.67;;
27740;SDS011;15134;48.768;9.184;2023-09-19T04:40:05;1009.25;;;908.65;;
27740;SDS011;15134;48.768;9.184;2023-09-19T04:42:40;1008.03;;;907.40;;
27740;SDS011;15134;48.768;9.184;2023-09-19T04:45:07;1004.28;;;904.10;;
27740;SDS011;15134;48.768;9.184;2023-09-19T04:47:39;1005.92;;;905.53;;
27740;SDS011;15134;48.768;9.184;2023-09-19T04:50:05;1015.45;;;914.55;;
27740;SDS011;15134;48.768;9.184;2023-09-19T04:52:33;1008.58;;;907.97;;
27740;SDS011;15134;48.768;9.184;2023-09-19T04:54:58;1012.03;;;911.40;;
27740;SDS011;15134;48.768;9.184;2023-09-19T04:57:24;1001.65;;;901.33;;
27740;SDS011;15134;48.768;9.184;2023-09-19T04:59:51;1006.97;;;906.43;;
27740;SDS011;15134;48.768;9.184;2023-09-19T05:02:17;1006.20;;;905.80;;
27740;SDS011;15134;48.768;9.184;2023-09-19T05:04:42;1001.80;;;901.60;;
27740;SDS011;15134;48.768;9.184;2023-09-19T05:07:08;1001.72;;;901.47;;
27740;SDS011;15134;48.768;9.184;2023-09-19T05:09:36;1005.67;;;905.08;;
27740;SDS011;15134;48.768;9.184;2023-09-19T05:12:02;1001.28;;;901.08;;
27740;SDS011;15134;48.768;9.184;2023-09-19T05:14:28;1000.55;;;900.40;;
27740;SDS011;15134;48.768;9.184;2023-09-19T05:16:55;1003.72;;;903.35;;
27740;SDS011;15134;48.768;9.184;2023-09-19T05:19:20;1000.78;;;900.42;;
27740;SDS011;15134;48.768;9.184;2023-09-19T05:21:46;1001.40;;;901.00;;
27740;SDS011;15134;48.768;9.184;2023-09-19T05:24:12;1002.00;;;901.53;;
27740;SDS011;15134;48.768;9.184;2023-09-19T05:26:39;993.38;;;893.28;;
27740;SDS011;15134;48.768;9.184;2023-09-19T05:29:05;993.15;;;893.05;;
27740;SDS011;15134;48.768;9.184;2023-09-19T05:31:33;1004.35;;;903.72;;
27740;SDS011;15134;48.768;9.184;2023-09-19T05:34:04;994.58;;;894.67;;
27740;SDS011;15134;48.768;9.184;2023-09-19T05:36:31;998.10;;;897.95;;
27740;SDS011;15134;48.768;9.184;2023-09-19T05:38:57;999.87;;;899.77;;
27740;SDS011;15134;48.768;9.184;2023-09-19T05:41:22;996.10;;;896.03;;
27740;SDS011;15134;48.768;9.184;2023-09-19T05:43:49;994.78;;;894.78;;
27740;SDS011;15134;48.768;9.184;2023-09-19T05:46:17;999.50;;;899.40;;
27740;SDS011;15134;48.768;9.184;2023-09-19T05:48:45;999.40;;;899.20;;
27740;SDS011;15134;48.768;9.184;2023-09-19T05:51:12;1003.30;;;902.83;;
27740;SDS011;15134;48.768;9.184;2023-09-19T05:53:39;997.78;;;897.50;;
27740;SDS011;15134;48.768;9.184;2023-09-19T05:56:09;998.22;;;897.85;;
27740;SDS011;15134;48.768;9.184;2023-09-19T05:58:36;988.15;;;888.22;;
27740;SDS011;15134;48.768;9.184;2023-09-19T06:01:02;992.57;;;892.30;;
27740;SDS011;15134;48.768;9.184;2023-09-19T06:03:32;993.23;;;893.00;;
27740;SDS011;15134;48.768;9.184;2023-09-19T06:06:00;992.57;;;892.50;;
27740;SDS011;15134;48.768;9.184;2023-09-19T06:08:29;993.90;;;893.70;;
27740;SDS011;15134;48.768;9.184;2023-09-19T06:10:56;999.22;;;899.05;;
27740;SDS011;15134;48.768;9.184;2023-09-19T06:13:22;999.27;;;898.83;;
27740;SDS011;15134;48.768;9.184;2023-09-19T06:15:48;1002.35;;;901.78;;
27740;SDS011;15134;48.768;9.184;2023-09-19T06:18:14;998.08;;;897.78;;
27740;SDS011;15134;48.768;9.184;2023-09-19T06:20:48;999.13;;;898.37;;
27740;SDS011;15134;48.768;9.184;2023-09-19T06:23:16;999.95;;;899.40;;
27740;SDS011;15134;48.768;9.184;2023-09-19T06:25:42;999.17;;;897.95;;
27740;SDS011;15134;48.768;9.184;2023-09-19T06:28:08;992.08;;;892.10;;
27740;SDS011;15134;48.768;9.184;2023-09-19T06:30:37;996.30;;;895.67;;
27740;SDS011;15134;48.768;9.184;2023-09-19T06:33:05;998.92;;;897.75;;
27740;SDS011;15134;48.768;9.184;2023-09-19T06:35:35;994.17;;;894.13;;
27740;SDS011;15134;48.768;9.184;2023-09-19T06:38:04;1001.67;;;900.95;;
27740;SDS011;15134;48.768;9.184;2023-09-19T06:40:30;1000.20;;;899.53;;
27740;SDS011;15134;48.768;9.184;2023-09-19T06:42:56;999.40;;;898.90;;
27740;SDS011;15134;48.768;9.184;2023-09-19T06:45:22;1000.70;;;900.30;;
27740;SDS011;15134;48.768;9.184;2023-09-19T06:47:53;1002.72;;;902.13;;
27740;SDS011;15134;48.768;9.184;2023-09-19T06:50:22;1007.05;;;906.33;;
27740;SDS011;15134;48.768;9.184;2023-09-19T06:52:49;1012.17;;;911.33;;
27740;SDS011;15134;48.768;9.184;2023-09-19T06:55:20;1014.75;;;913.75;;
27740;SDS011;15134;48.768;9.184;2023-09-19T06:57:53;1014.65;;;912.63;;
27740;SDS011;15134;48.768;9.184;2023-09-19T07:00:19;1024.47;;;922.33;;
27740;SDS011;15134;48.768;9.184;2023-09-19T07:03:01;1021.00;;;918.80;;
27740;SDS011;15134;48.768;9.184;2023-09-19T07:05:33;1028.93;;;926.75;;
27740;SDS011;15134;48.768;9.184;2023-09-19T07:08:06;1036.30;;;933.95;;
27740;SDS011;15134;48.768;9.184;2023-09-19T07:10:33;1038.53;;;935.13;;
27740;SDS011;15134;48.768;9.184;2023-09-19T07:13:00;1043.45;;;940.90;;
27740;SDS011;15134;48.768;9.184;2023-09-19T07:15:28;1038.15;;;936.03;;
27740;SDS011;15134;48.768;9.184;2023-09-19T07:17:56;1037.72;;;935.08;;
27740;SDS011;15134;48.768;9.184;2023-09-19T07:20:26;1046.65;;;944.05;;
27740;SDS011;15134;48.768;9.184;2023-09-19T07:22:53;1046.32;;;943.50;;
27740;SDS011;15134;48.768;9.184;2023-09-19T07:25:25;1041.13;;;938.90;;
27740;SDS011;15134;48.768;9.184;2023-09-19T07:27:51;1043.78;;;941.55;;
27740;SDS011;15134;48.768;9.184;2023-09-19T07:30:17;1041.82;;;939.75;;
27740;SDS011;15134;48.768;9.184;2023-09-19T07:32:43;1042.00;;;939.78;;
27740;SDS011;15134;48.768;9.184;2023-09-19T07:35:09;1044.03;;;941.75;;
27740;SDS011;15134;48.768;9.184;2023-09-19T07:37:34;1043.93;;;941.70;;
27740;SDS011;15134;48.768;9.184;2023-09-19T07:40:04;1049.97;;;947.40;;
27740;SDS011;15134;48.768;9.184;2023-09-19T07:42:35;1057.25;;;954.45;;
27740;SDS011;15134;48.768;9.184;2023-09-19T07:45:06;1067.43;;;963.93;;
27740;SDS011;15134;48.768;9.184;2023-09-19T07:47:33;1075.45;;;971.45;;
27740;SDS011;15134;48.768;9.184;2023-09-19T07:50:01;1076.30;;;972.47;;
27740;SDS011;15134;48.768;9.184;2023-09-19T07:52:30;1089.82;;;985.10;;
27740;SDS011;15134;48.768;9.184;2023-09-19T07:54:58;1094.53;;;989.83;;
27740;SDS011;15134;48.768;9.184;2023-09-19T07:57:32;1107.07;;;999.90;;
27740;SDS011;15134;48.768;9.184;2023-09-19T08:00:03;1116.10;;;999.90;;
27740;SDS011;15134;48.768;9.184;2023-09-19T08:02:37;1111.93;;;999.90;;
27740;SDS011;15134;48.768;9.184;2023-09-19T08:05:09;1116.53;;;999.90;;
27740;SDS011;15134;48.768;9.184;2023-09-19T08:07:43;1119.38;;;999.90;;
27740;SDS011;15134;48.768;9.184;2023-09-19T08:10:21;1119.88;;;999.90;;
27740;SDS011;15134;48.768;9.184;2023-09-19T08:12:52;1120.55;;;999.90;;
27740;SDS011;15134;48.768;9.184;2023-09-19T08:15:23;1138.90;;;999.90;;
27740;SDS011;15134;48.768;9.184;2023-09-19T08:17:49;1145.73;;;999.90;;
27740;SDS011;15134;48.768;9.184;2023-09-19T08:23:45;1164.85;;;999.90;;
27740;SDS011;15134;48.768;9.184;2023-09-19T08:26:14;1165.67;;;999.90;;
27740;SDS011;15134;48.768;9.184;2023-09-19T08:28:39;1180.28;;;999.90;;
27740;SDS011;15134;48.768;9.184;2023-09-19T08:31:11;1180.45;;;999.90;;
27740;SDS011;15134;48.768;9.184;2023-09-19T08:33:36;1187.27;;;999.90;;
27740;SDS011;15134;48.768;9.184;2023-09-19T08:36:03;1194.93;;;999.90;;
27740;SDS011;15134;48.768;9.184;2023-09-19T08:38:33;1198.88;;;999.90;;
27740;SDS011;15134;48.768;9.184;2023-09-19T08:41:07;1207.78;;;999.90;;
27740;SDS011;15134;48.768;9.184;2023-09-19T08:43:34;1207.25;;;999.90;;
27740;SDS011;15134;48.768;9.184;2023-09-19T08:48:46;1200.90;;;999.90;;
27740;SDS011;15134;48.768;9.184;2023-09-19T08:51:43;1201.95;;;999.90;;
27740;SDS011;15134;48.768;9.184;2023-09-19T08:54:22;1198.53;;;999.90;;
27740;SDS011;15134;48.768;9.184;2023-09-19T08:56:51;1199.68;;;999.90;;
27740;SDS011;15134;48.768;9.184;2023-09-19T08:59:22;1196.15;;;999.90;;
27740;SDS011;15134;48.768;9.184;2023-09-19T09:01:54;1190.70;;;999.90;;
27740;SDS011;15134;48.768;9.184;2023-09-19T09:04:22;1189.38;;;999.90;;
27740;SDS011;15134;48.768;9.184;2023-09-19T09:06:48;1183.70;;;999.90;;
27740;SDS011;15134;48.768;9.184;2023-09-19T09:09:18;1187.30;;;999.90;;
27740;SDS011;15134;48.768;9.184;2023-09-19T09:11:45;1192.45;;;999.90;;
27740;SDS011;15134;48.768;9.184;2023-09-19T09:14:19;1196.35;;;999.90;;
27740;SDS011;15134;48.768;9.184;2023-09-19T09:16:46;1196.40;;;999.90;;
27740;SDS011;15134;48.768;9.184;2023-09-19T09:19:14;1194.07;;;999.90;;
27740;SDS011;15134;48.768;9.184;2023-09-19T09:21:49;1192.53;;;999.90;;
27740;SDS011;15134;48.768;9.184;2023-09-19T09:24:26;1188.67;;;999.90;;
27740;SDS011;15134;48.768;9.184;2023-09-19T09:26:54;1179.63;;;999.90;;
27740;SDS011;15134;48.768;9.184;2023-09-19T09:29:44;1179.67;;;999.90;;
27740;SDS011;15134;48.768;9.184;2023-09-19T09:32:20;1163.80;;;999.90;;
27740;SDS011;15134;48.768;9.184;2023-09-19T09:34:50;1154.40;;;999.90;;
27740;SDS011;15134;48.768;9.184;2023-09-19T09:37:18;1153.80;;;999.90;;
27740;SDS011;15134;48.768;9.184;2023-09-19T09:39:54;1148.07;;;999.90;;
27740;SDS011;15134;48.768;9.184;2023-09-19T09:42:36;1152.78;;;999.90;;
27740;SDS011;15134;48.768;9.184;2023-09-19T09:45:46;1150.47;;;999.90;;
27740;SDS011;15134;48.768;9.184;2023-09-19T09:47:58;1154.85;;;999.90;;
27740;SDS011;15134;48.768;9.184;2023-09-19T09:50:33;1156.28;;;999.90;;
27740;SDS011;15134;48.768;9.184;2023-09-19T09:53:27;1158.88;;;999.90;;
27740;SDS011;15134;48.768;9.184;2023-09-19T09:58:38;1156.82;;;999.90;;
27740;SDS011;15134;48.768;9.184;2023-09-19T10:01:18;1148.00;;;999.90;;
27740;SDS011;15134;48.768;9.184;2023-09-19T10:03:45;1147.18;;;999.90;;
27740;SDS011;15134;48.768;9.184;2023-09-19T10:06:16;1138.90;;;999.90;;
27740;SDS011;15134;48.768;9.184;2023-09-19T10:08:58;1141.20;;;999.90;;
27740;SDS011;15134;48.768;9.184;2023-09-19T10:11:46;1141.00;;;999.90;;
27740;SDS011;15134;48.768;9.184;2023-09-19T10:14:16;1149.57;;;999.90;;
27740;SDS011;15134;48.768;9.184;2023-09-19T10:16:50;1150.07;;;999.90;;
27740;SDS011;15134;48.768;9.184;2023-09-19T10:20:10;1145.35;;;999.90;;
27740;SDS011;15134;48.768;9.184;2023-09-19T10:22:24;1136.63;;;999.90;;
27740;SDS011;15134;48.768;9.184;2023-09-19T10:24:54;1141.95;;;999.90;;
27740;SDS011;15134;48.768;9.184;2023-09-19T10:27:22;1136.53;;;999.90;;
27740;SDS011;15134;48.768;9.184;2023-09-19T10:29:51;1138.27;;;999.90;;
27740;SDS011;15134;48.768;9.184;2023-09-19T10:32:24;1137.43;;;999.90;;
27740;SDS011;15134;48.768;9.184;2023-09-19T10:34:52;1129.22;;;999.90;;
27740;SDS011;15134;48.768;9.184;2023-09-19T10:37:20;1130.82;;;999.90;;
27740;SDS011;15134;48.768;9.184;2023-09-19T10:39:51;1127.75;;;999.90;;
27740;SDS011;15134;48.768;9.184;2023-09-19T10:42:19;1124.50;;;999.90;;
27740;SDS011;15134;48.768;9.184;2023-09-19T10:44:51;1122.03;;;999.90;;
27740;SDS011;15134;48.768;9.184;2023-09-19T10:47:25;1127.18;;;999.90;;
27740;SDS011;15134;48.768;9.184;2023-09-19T10:49:51;1122.00;;;999.90;;
27740;SDS011;15134;48.768;9.184;2023-09-19T10:52:22;1129.90;;;999.90;;
27740;SDS011;15134;48.768;9.184;2023-09-19T10:54:50;1123.90;;;999.90;;
27740;SDS011;15134;48.768;9.184;2023-09-19T10:57:23;1122.95;;;999.90;;
27740;SDS011;15134;48.768;9.184;2023-09-19T11:00:02;1121.30;;;999.90;;
27740;SDS011;15134;48.768;9.184;2023-09-19T11:05:36;1124.65;;;999.90;;
27740;SDS011;15134;48.768;9.184;2023-09-19T11:08:09;1123.68;;;999.90;;
27740;SDS011;15134;48.768;9.184;2023-09-19T11:26:44;1113.18;;;999.90;;
27740;SDS011;15134;48.768;9.184;2023-09-19T11:29:25;1115.53;;;999.90;;
27740;SDS011;15134;48.768;9.184;2023-09-19T11:31:52;1114.10;;;999.90;;
27740;SDS011;15134;48.768;9.184;2023-09-19T11:34:44;1112.80;;;999.90;;
27740;SDS011;15134;48.768;9.184;2023-09-19T11:40:25;1112.57;;;999.90;;
27740;SDS011;15134;48.768;9.184;2023-09-19T11:42:42;1109.53;;;999.90;;
27740;SDS011;15134;48.768;9.184;2023-09-19T11:48:15;1112.50;;;999.90;;
27740;SDS011;15134;48.768;9.184;2023-09-19T11:50:44;1099.13;;;995.08;;
27740;SDS011;15134;48.768;9.184;2023-09-19T11:53:12;1104.55;;;999.78;;
27740;SDS011;15134;48.768;9.184;2023-09-19T11:55:39;1100.80;;;996.58;;
27740;SDS011;15134;48.768;9.184;2023-09-19T11:58:09;1106.30;;;999.90;;
27740;SDS011;15134;48.768;9.184;2023-09-19T12:00:38;1104.85;;;999.90;;
27740;SDS011;15134;48.768;9.184;2023-09-19T12:03:10;1095.85;;;992.17;;
27740;SDS011;15134;48.768;9.184;2023-09-19T12:05:37;1105.38;;;999.90;;
27740;SDS011;15134;48.768;9.184;2023-09-19T12:08:04;1099.88;;;995.67;;
27740;SDS011;15134;48.768;9.184;2023-09-19T12:10:43;1095.50;;;991.75;;
27740;SDS011;15134;48.768;9.184;2023-09-19T12:13:17;1093.78;;;989.97;;
27740;SDS011;15134;48.768;9.184;2023-09-19T12:15:43;1100.65;;;996.60;;
27740;SDS011;15134;48.768;9.184;2023-09-19T12:18:29;1096.88;;;992.88;;
27740;SDS011;15134;48.768;9.184;2023-09-19T12:20:55;1107.53;;;999.90;;
27740;SDS011;15134;48.768;9.184;2023-09-19T12:23:22;1107.28;;;999.90;;
27740;SDS011;15134;48.768;9.184;2023-09-19T12:25:48;1106.47;;;999.90;;
27740;SDS011;15134;48.768;9.184;2023-09-19T12:28:21;1099.65;;;995.70;;
27740;SDS011;15134;48.768;9.184;2023-09-19T12:30:51;1104.40;;;999.83;;
27740;SDS011;15134;48.768;9.184;2023-09-19T12:33:21;1099.15;;;995.13;;
27740;SDS011;15134;48.768;9.184;2023-09-19T12:35:50;1105.80;;;999.90;;
27740;SDS011;15134;48.768;9.184;2023-09-19T12:38:26;1100.77;;;996.57;;
27740;SDS011;15134;48.768;9.184;2023-09-19T12:40:54;1094.90;;;991.15;;
27740;SDS011;15134;48.768;9.184;2023-09-19T12:43:25;1094.68;;;990.72;;
27740;SDS011;15134;48.768;9.184;2023-09-19T12:46:06;1100.80;;;996.80;;
27740;SDS011;15134;48.768;9.184;2023-09-19T12:48:32;1096.40;;;992.55;;
27740;SDS011;15134;48.768;9.184;2023-09-19T12:51:03;1099.25;;;995.40;;
27740;SDS011;15134;48.768;9.184;2023-09-19T12:53:34;1101.73;;;997.37;;
27740;SDS011;15134;48.768;9.184;2023-09-19T12:56:05;1096.97;;;992.93;;
27740;SDS011;15134;48.768;9.184;2023-09-19T12:58:32;1099.88;;;995.53;;
27740;SDS011;15134;48.768;9.184;2023-09-19T13:01:00;1090.27;;;986.57;;
27740;SDS011;15134;48.768;9.184;2023-09-19T13:03:28;1096.03;;;991.90;;
27740;SDS011;15134;48.768;9.184;2023-09-19T13:05:57;1100.50;;;996.28;;
27740;SDS011;15134;48.768;9.184;2023-09-19T13:11:04;1097.55;;;993.78;;
27740;SDS011;15134;48.768;9.184;2023-09-19T13:16:13;1101.57;;;997.50;;
27740;SDS011;15134;48.768;9.184;2023-09-19T13:18:48;1096.28;;;992.45;;
27740;SDS011;15134;48.768;9.184;2023-09-19T13:21:39;1100.78;;;996.80;;
27740;SDS011;15134;48.768;9.184;2023-09-19T13:24:18;1098.23;;;994.37;;
27740;SDS011;15134;48.768;9.184;2023-09-19T13:26:45;1090.17;;;986.67;;
27740;SDS011;15134;48.768;9.184;2023-09-19T13:29:11;1091.20;;;987.55;;
27740;SDS011;15134;48.768;9.184;2023-09-19T13:31:48;1091.07;;;987.28;;
27740;SDS011;15134;48.768;9.184;2023-09-19T13:34:15;1096.82;;;992.97;;
27740;SDS011;15134;48.768;9.184;2023-09-19T13:36:42;1096.03;;;992.10;;
27740;SDS011;15134;48.768;9.184;2023-09-19T13:39:08;1094.77;;;990.87;;
27740;SDS011;15134;48.768;9.184;2023-09-19T13:41:34;1087.00;;;983.17;;
27740;SDS011;15134;48.768;9.184;2023-09-19T13:44:04;1095.50;;;991.43;;
27740;SDS011;15134;48.768;9.184;2023-09-19T13:46:30;1093.30;;;989.47;;
27740;SDS011;15134;48.768;9.184;2023-09-19T13:49:00;1102.25;;;997.83;;
27740;SDS011;15134;48.768;9.184;2023-09-19T13:51:31;1095.05;;;990.97;;
27740;SDS011;15134;48.768;9.184;2023-09-19T13:53:57;1096.90;;;992.80;;
27740;SDS011;15134;48.768;9.184;2023-09-19T13:56:24;1096.18;;;992.13;;
27740;SDS011;15134;48.768;9.184;2023-09-19T13:58:53;1092.63;;;988.78;;
27740;SDS011;15134;48.768;9.184;2023-09-19T14:01:19;1094.67;;;990.57;;
27740;SDS011;15134;48.768;9.184;2023-09-19T14:03:45;1088.03;;;984.30;;
27740;SDS011;15134;48.768;9.184;2023-09-19T14:06:12;1084.95;;;981.30;;
27740;SDS011;15134;48.768;9.184;2023-09-19T14:08:38;1094.88;;;990.90;;
27740;SDS011;15134;48.768;9.184;2023-09-19T14:11:07;1090.38;;;986.42;;
27740;SDS011;15134;48.768;9.184;2023-09-19T14:13:41;1094.13;;;990.17;;
27740;SDS011;15134;48.768;9.184;2023-09-19T14:16:13;1094.38;;;990.38;;
27740;SDS011;15134;48.768;9.184;2023-09-19T14:18:39;1089.22;;;985.60;;
27740;SDS011;15134;48.768;9.184;2023-09-19T14:21:05;1085.65;;;982.00;;
27740;SDS011;15134;48.768;9.184;2023-09-19T14:23:37;1085.60;;;981.83;;
27740;SDS011;15134;48.768;9.184;2023-09-19T14:26:04;1089.28;;;985.60;;
27740;SDS011;15134;48.768;9.184;2023-09-19T14:28:33;1091.97;;;987.97;;
27740;SDS011;15134;48.768;9.184;2023-09-19T14:31:08;1087.50;;;983.88;;
27740;SDS011;15134;48.768;9.184;2023-09-19T14:33:38;1096.97;;;992.97;;
27740;SDS011;15134;48.768;9.184;2023-09-19T14:36:04;1096.75;;;992.35;;
27740;SDS011;15134;48.768;9.184;2023-09-19T14:38:32;1092.93;;;988.92;;
27740;SDS011;15134;48.768;9.184;2023-09-19T14:40:59;1098.75;;;994.40;;
27740;SDS011;15134;48.768;9.184;2023-09-19T14:43:31;1088.93;;;985.05;;
27740;SDS011;15134;48.768;9.184;2023-09-19T14:46:02;1092.13;;;988.33;;
27740;SDS011;15134;48.768;9.184;2023-09-19T14:48:35;1084.60;;;981.10;;
27740;SDS011;15134;48.768;9.184;2023-09-19T14:51:07;1095.20;;;990.88;;
27740;SDS011;15134;48.768;9.184;2023-09-19T14:53:37;1092.47;;;988.70;;
27740;SDS011;15134;48.768;9.184;2023-09-19T14:56:03;1093.88;;;989.85;;
27740;SDS011;15134;48.768;9.184;2023-09-19T14:58:30;1096.15;;;991.95;;